Time;durP1;ratioP1;P1;durP2;ratioP2;P2;SDS_P1;SDS_P2;PMS_P1;PMS_P2;Temp;Humidity;BMP_temperature;BMP_pressure;BME280_temperature;BME280_humidity;BME280_pressure;Samples;Min_cycle;Max_cycle;Signal;HPM_P1;HPM_P2
2023/06/03 00:02:14;;;;;;;12.68;3.97;;;;;;;;;;5029990;28;20092;-47
2023/06/03 00:04:43;;;;;;;14.07;3.73;;;;;;;;;;5016951;28;20061;-46
2023/06/03 00:07:11;;;;;;;18.85;3.97;;;;;;;;;;5014548;28;20491;-46
2023/06/03 00:09:39;;;;;;;17.92;3.70;;;;;;;;;;5011784;28;20041;-47
2023/06/03 00:12:07;;;;;;;15.75;3.88;;;;;;;;;;5006008;28;20045;-47
2023/06/03 00:14:35;;;;;;;15.20;3.63;;;;;;;;;;5026787;28;20041;-46
2023/06/03 00:17:03;;;;;;;12.60;3.63;;;;;;;;;;4993699;28;20045;-47
2023/06/03 00:19:31;;;;;;;14.25;3.63;;;;;;;;;;5021529;28;20496;-48
2023/06/03 00:22:02;;;;;;;19.13;4.03;;;;;;;;;;5025597;28;20033;-46
2023/06/03 00:24:29;;;;;;;15.38;3.83;;;;;;;;;;5006982;28;20034;-45
2023/06/03 00:26:58;;;;;;;16.73;4.25;;;;;;;;;;5015794;28;20045;-50
2023/06/03 00:29:26;;;;;;;15.20;3.40;;;;;;;;;;5013251;28;20049;-50
2023/06/03 00:31:54;;;;;;;17.40;3.97;;;;;;;;;;5021043;28;20384;-46
2023/06/03 00:34:22;;;;;;;13.88;3.88;;;;;;;;;;5014334;28;20044;-46
2023/06/03 00:36:50;;;;;;;15.95;3.83;;;;;;;;;;5015980;28;20045;-44
2023/06/03 00:39:19;;;;;;;16.73;3.63;;;;;;;;;;5017489;28;20245;-46
2023/06/03 00:41:46;;;;;;;12.23;3.73;;;;;;;;;;5026087;28;20500;-49
2023/06/03 00:44:14;;;;;;;16.95;3.90;;;;;;;;;;5016422;28;20052;-44
2023/06/03 00:46:42;;;;;;;18.08;4.13;;;;;;;;;;5016984;28;20234;-45
2023/06/03 00:49:10;;;;;;;21.08;4.82;;;;;;;;;;5016917;28;20045;-46
2023/06/03 00:51:38;;;;;;;15.32;4.00;;;;;;;;;;5018907;28;20045;-50
2023/06/03 00:54:06;;;;;;;14.10;3.53;;;;;;;;;;5020036;28;20403;-46
2023/06/03 00:56:41;;;;;;;17.63;4.05;;;;;;;;;;5023471;28;20746;-45
2023/06/03 00:59:09;;;;;;;14.02;3.72;;;;;;;;;;5016644;28;20037;-45
2023/06/03 01:01:38;;;;;;;12.18;3.67;;;;;;;;;;5001372;28;20040;-47
2023/06/03 01:04:07;;;;;;;18.52;3.55;;;;;;;;;;5021796;28;20388;-45
2023/06/03 01:06:45;;;;;;;16.73;3.77;;;;;;;;;;5007277;28;21161;-44
2023/06/03 01:09:16;;;;;;;16.98;4.22;;;;;;;;;;5021227;28;20037;-44
2023/06/03 01:11:49;;;;;;;18.67;3.75;;;;;;;;;;5020965;28;20037;-45
2023/06/03 01:14:23;;;;;;;13.20;3.90;;;;;;;;;;5025658;28;20041;-45
2023/06/03 01:16:52;;;;;;;13.43;3.95;;;;;;;;;;5014933;28;20040;-46
2023/06/03 01:19:27;;;;;;;14.40;3.70;;;;;;;;;;5026990;28;20565;-45
2023/06/03 01:22:00;;;;;;;15.18;4.18;;;;;;;;;;5020114;28;20045;-45
2023/06/03 01:24:30;;;;;;;12.95;4.32;;;;;;;;;;5021771;28;20044;-46
2023/06/03 01:26:59;;;;;;;12.40;3.65;;;;;;;;;;5021333;28;20048;-44
2023/06/03 01:29:27;;;;;;;15.25;4.00;;;;;;;;;;5015376;28;20060;-44
2023/06/03 01:31:56;;;;;;;14.47;3.73;;;;;;;;;;5028524;28;20040;-44
2023/06/03 01:34:24;;;;;;;20.83;4.70;;;;;;;;;;4993865;28;20446;-44
2023/06/03 01:36:52;;;;;;;17.10;4.40;;;;;;;;;;5012756;28;20048;-46
2023/06/03 01:39:20;;;;;;;19.85;4.22;;;;;;;;;;5010554;28;20041;-45
2023/06/03 01:41:49;;;;;;;21.13;5.05;;;;;;;;;;5015620;28;20047;-45
2023/06/03 01:44:17;;;;;;;15.33;4.17;;;;;;;;;;5024386;28;20041;-44
2023/06/03 01:46:46;;;;;;;17.30;3.90;;;;;;;;;;4992049;28;20090;-47
2023/06/03 01:49:14;;;;;;;14.90;3.72;;;;;;;;;;5034796;28;20029;-45
2023/06/03 01:51:43;;;;;;;13.73;4.47;;;;;;;;;;5019921;28;20045;-45
2023/06/03 01:54:10;;;;;;;14.15;3.75;;;;;;;;;;4995591;28;20037;-44
2023/06/03 01:56:38;;;;;;;23.57;4.60;;;;;;;;;;5018625;28;20048;-47
2023/06/03 01:59:08;;;;;;;19.15;4.40;;;;;;;;;;4999063;28;20033;-48
2023/06/03 02:01:36;;;;;;;17.50;4.47;;;;;;;;;;5013168;28;20049;-44
2023/06/03 02:04:04;;;;;;;19.38;4.35;;;;;;;;;;5020963;28;20224;-46
2023/06/03 02:06:31;;;;;;;21.58;5.45;;;;;;;;;;5022440;28;20123;-47
2023/06/03 02:09:00;;;;;;;13.40;3.80;;;;;;;;;;5016855;28;20048;-44
2023/06/03 02:11:27;;;;;;;18.02;4.30;;;;;;;;;;4992965;28;20419;-47
2023/06/03 02:13:56;;;;;;;14.90;4.18;;;;;;;;;;5019805;28;20040;-45
2023/06/03 02:16:25;;;;;;;20.33;4.55;;;;;;;;;;5016058;28;20067;-47
2023/06/03 02:18:54;;;;;;;17.25;4.78;;;;;;;;;;5020075;28;20037;-44
2023/06/03 02:21:22;;;;;;;12.37;4.23;;;;;;;;;;5020906;28;20063;-45
2023/06/03 02:23:50;;;;;;;19.00;5.07;;;;;;;;;;5033889;28;20056;-45
2023/06/03 02:26:18;;;;;;;20.73;5.00;;;;;;;;;;5017277;28;20029;-45
2023/06/03 02:28:50;;;;;;;17.30;4.45;;;;;;;;;;5015984;28;20044;-45
2023/06/03 02:31:21;;;;;;;15.02;4.15;;;;;;;;;;5011656;28;20041;-45
2023/06/03 02:33:50;;;;;;;17.33;3.77;;;;;;;;;;5010529;28;20068;-47
2023/06/03 02:36:18;;;;;;;20.38;4.53;;;;;;;;;;4993985;28;20041;-44
2023/06/03 02:38:47;;;;;;;17.02;4.90;;;;;;;;;;5028321;28;20045;-45
2023/06/03 02:41:17;;;;;;;21.27;4.60;;;;;;;;;;5017362;28;20912;-45
2023/06/03 02:43:45;;;;;;;18.25;4.88;;;;;;;;;;5000298;28;20052;-44
2023/06/03 02:46:13;;;;;;;15.80;4.87;;;;;;;;;;5013945;28;20048;-47
2023/06/03 02:48:41;;;;;;;17.40;4.60;;;;;;;;;;5007933;28;20527;-44
2023/06/03 02:51:10;;;;;;;18.85;4.03;;;;;;;;;;5010819;28;20037;-44
2023/06/03 02:53:38;;;;;;;13.65;4.68;;;;;;;;;;5016425;28;20046;-47
2023/06/03 02:56:05;;;;;;;17.60;4.88;;;;;;;;;;5001340;28;20033;-46
2023/06/03 02:58:33;;;;;;;15.23;4.47;;;;;;;;;;5031206;28;20060;-45
2023/06/03 03:01:01;;;;;;;19.63;4.40;;;;;;;;;;5000615;28;20702;-45
2023/06/03 03:03:30;;;;;;;17.60;4.55;;;;;;;;;;5017596;28;20813;-43
2023/06/03 03:06:01;;;;;;;15.40;4.30;;;;;;;;;;5011952;28;20045;-44
2023/06/03 03:08:31;;;;;;;16.55;4.30;;;;;;;;;;5005551;28;20052;-47
2023/06/03 03:10:58;;;;;;;19.83;4.60;;;;;;;;;;5020084;28;20056;-44
2023/06/03 03:13:26;;;;;;;20.58;5.25;;;;;;;;;;5015234;28;20048;-46
2023/06/03 03:15:54;;;;;;;19.40;4.53;;;;;;;;;;5020472;28;20086;-45
2023/06/03 03:18:22;;;;;;;15.57;4.40;;;;;;;;;;5026667;28;20515;-45
2023/06/03 03:20:50;;;;;;;14.18;4.68;;;;;;;;;;5021554;28;20453;-45
2023/06/03 03:23:18;;;;;;;17.67;4.13;;;;;;;;;;5014802;28;20036;-45
2023/06/03 03:25:47;;;;;;;14.80;4.72;;;;;;;;;;5010197;28;20048;-44
2023/06/03 03:28:15;;;;;;;19.17;4.57;;;;;;;;;;5018688;28;20049;-44
2023/06/03 03:30:44;;;;;;;15.35;4.35;;;;;;;;;;5001105;28;20488;-45
2023/06/03 03:33:15;;;;;;;15.60;4.70;;;;;;;;;;4982029;28;20095;-44
2023/06/03 03:35:43;;;;;;;18.47;4.70;;;;;;;;;;5020068;28;20052;-44
2023/06/03 03:38:11;;;;;;;18.40;4.03;;;;;;;;;;5019309;28;20080;-45
2023/06/03 03:40:39;;;;;;;16.48;4.57;;;;;;;;;;5006391;28;20041;-44
2023/06/03 03:43:14;;;;;;;18.15;4.30;;;;;;;;;;5026428;28;20044;-44
2023/06/03 03:45:43;;;;;;;21.40;5.90;;;;;;;;;;5013811;28;20135;-44
2023/06/03 03:48:13;;;;;;;16.13;5.00;;;;;;;;;;5004156;28;20029;-45
2023/06/03 03:50:44;;;;;;;20.88;4.32;;;;;;;;;;5025565;28;20041;-44
2023/06/03 03:53:14;;;;;;;20.05;5.35;;;;;;;;;;5018563;28;20044;-46
2023/06/03 03:55:43;;;;;;;13.95;4.10;;;;;;;;;;5013962;28;20148;-47
2023/06/03 03:58:25;;;;;;;15.05;4.80;;;;;;;;;;5020541;28;20037;-45
2023/06/03 04:00:53;;;;;;;16.83;4.23;;;;;;;;;;5009379;28;20164;-45
2023/06/03 04:03:21;;;;;;;18.02;4.53;;;;;;;;;;5011867;28;20372;-45
2023/06/03 04:05:49;;;;;;;15.80;4.90;;;;;;;;;;5010511;28;20696;-45
2023/06/03 04:08:24;;;;;;;18.20;4.80;;;;;;;;;;5017283;28;20037;-47
2023/06/03 04:10:51;;;;;;;19.25;4.63;;;;;;;;;;5016109;28;20037;-46
2023/06/03 04:13:20;;;;;;;13.97;4.23;;;;;;;;;;5023389;28;20037;-46
2023/06/03 04:15:49;;;;;;;19.85;4.70;;;;;;;;;;5002863;28;20072;-45
2023/06/03 04:18:19;;;;;;;20.67;4.50;;;;;;;;;;5008195;28;20041;-45
2023/06/03 04:20:48;;;;;;;16.02;4.30;;;;;;;;;;4988346;28;21276;-46
2023/06/03 04:23:19;;;;;;;16.90;4.50;;;;;;;;;;5020776;28;20049;-44
2023/06/03 04:25:47;;;;;;;12.30;3.80;;;;;;;;;;4998412;28;20040;-46
2023/06/03 04:28:15;;;;;;;16.38;4.90;;;;;;;;;;5019890;28;20033;-44
2023/06/03 04:30:43;;;;;;;21.38;4.72;;;;;;;;;;5014994;28;20128;-45
2023/06/03 04:33:12;;;;;;;21.63;5.30;;;;;;;;;;5020728;28;20071;-44
2023/06/03 04:35:40;;;;;;;15.95;5.38;;;;;;;;;;5011605;28;20045;-45
2023/06/03 04:38:07;;;;;;;19.37;5.03;;;;;;;;;;5016088;28;20505;-43
2023/06/03 04:40:37;;;;;;;16.73;5.05;;;;;;;;;;5021154;28;20052;-44
2023/06/03 04:43:05;;;;;;;15.13;4.75;;;;;;;;;;5009796;28;20038;-45
2023/06/03 04:45:33;;;;;;;16.08;4.80;;;;;;;;;;5018137;28;20046;-44
2023/06/03 04:48:01;;;;;;;17.75;4.03;;;;;;;;;;5012347;28;20381;-46
2023/06/03 04:50:35;;;;;;;18.00;4.63;;;;;;;;;;5029714;28;20045;-44
2023/06/03 04:53:04;;;;;;;18.17;4.93;;;;;;;;;;5014546;28;20041;-47
2023/06/03 04:55:32;;;;;;;20.35;4.30;;;;;;;;;;5024289;28;20044;-46
2023/06/03 04:58:02;;;;;;;14.57;4.15;;;;;;;;;;5004556;28;20037;-44
2023/06/03 05:00:32;;;;;;;19.85;5.22;;;;;;;;;;5028576;28;20076;-45
2023/06/03 05:03:01;;;;;;;18.20;4.60;;;;;;;;;;5009668;28;20056;-45
2023/06/03 05:05:31;;;;;;;21.67;4.80;;;;;;;;;;5014269;28;20041;-45
2023/06/03 05:07:59;;;;;;;18.05;4.53;;;;;;;;;;5008378;28;20041;-46
2023/06/03 05:10:28;;;;;;;18.45;4.95;;;;;;;;;;5009068;28;20033;-45
2023/06/03 05:12:57;;;;;;;21.40;4.90;;;;;;;;;;5015366;28;20049;-46
2023/06/03 05:15:25;;;;;;;12.17;4.60;;;;;;;;;;5018700;28;20047;-45
2023/06/03 05:17:53;;;;;;;18.95;4.57;;;;;;;;;;5019844;28;20094;-47
2023/06/03 05:20:21;;;;;;;15.68;4.10;;;;;;;;;;5000575;28;20656;-45
2023/06/03 05:22:50;;;;;;;15.52;5.18;;;;;;;;;;5023402;28;20037;-45
2023/06/03 05:25:18;;;;;;;14.98;4.35;;;;;;;;;;5009305;28;20045;-47
2023/06/03 05:27:45;;;;;;;20.10;5.97;;;;;;;;;;5021310;28;20045;-44
2023/06/03 05:30:31;;;;;;;18.65;5.00;;;;;;;;;;5017225;28;20037;-44
2023/06/03 05:33:00;;;;;;;24.00;4.97;;;;;;;;;;5015646;28;20048;-44
2023/06/03 05:35:28;;;;;;;18.23;5.05;;;;;;;;;;4996070;28;20040;-46
2023/06/03 05:37:57;;;;;;;17.58;5.05;;;;;;;;;;5012147;28;20048;-46
2023/06/03 05:40:25;;;;;;;18.00;5.80;;;;;;;;;;5014495;28;20116;-45
2023/06/03 05:42:55;;;;;;;19.58;5.45;;;;;;;;;;5019796;28;20922;-46
2023/06/03 05:45:23;;;;;;;17.83;5.13;;;;;;;;;;5027398;28;20119;-45
2023/06/03 05:47:51;;;;;;;17.33;5.38;;;;;;;;;;5023059;28;20045;-46
2023/06/03 05:50:18;;;;;;;19.58;5.03;;;;;;;;;;5021492;28;20061;-44
2023/06/03 05:52:46;;;;;;;15.33;5.07;;;;;;;;;;5014991;28;20045;-45
2023/06/03 05:55:16;;;;;;;18.95;5.05;;;;;;;;;;5031962;28;20075;-47
2023/06/03 05:57:43;;;;;;;19.23;5.88;;;;;;;;;;4991528;28;20310;-46
2023/06/03 06:00:12;;;;;;;23.05;5.85;;;;;;;;;;5021056;28;20079;-44
2023/06/03 06:02:40;;;;;;;21.75;5.13;;;;;;;;;;5011440;28;21218;-46
2023/06/03 06:05:08;;;;;;;15.37;5.20;;;;;;;;;;5008849;28;20749;-44
2023/06/03 06:07:36;;;;;;;17.70;5.60;;;;;;;;;;5016352;28;20522;-47
2023/06/03 06:10:04;;;;;;;16.95;5.47;;;;;;;;;;5020750;28;20052;-47
2023/06/03 06:12:33;;;;;;;16.58;5.07;;;;;;;;;;5014209;28;20041;-49
2023/06/03 06:15:01;;;;;;;17.20;5.55;;;;;;;;;;5017605;28;20125;-46
2023/06/03 06:17:29;;;;;;;20.30;5.20;;;;;;;;;;5018664;28;20562;-48
2023/06/03 06:19:59;;;;;;;21.65;5.68;;;;;;;;;;5003102;28;20480;-49
2023/06/03 06:22:27;;;;;;;22.90;5.57;;;;;;;;;;5015800;28;20808;-47
2023/06/03 06:24:55;;;;;;;20.35;5.60;;;;;;;;;;5008146;28;20683;-46
2023/06/03 06:27:23;;;;;;;17.30;5.63;;;;;;;;;;5016051;28;20041;-46
2023/06/03 06:29:53;;;;;;;21.20;5.40;;;;;;;;;;5022640;28;20043;-46
2023/06/03 06:32:22;;;;;;;18.52;6.15;;;;;;;;;;5007809;28;20037;-47
2023/06/03 06:34:50;;;;;;;20.00;5.43;;;;;;;;;;4997707;28;20037;-47
2023/06/03 06:37:19;;;;;;;21.33;5.68;;;;;;;;;;5017062;28;20045;-46
2023/06/03 06:39:48;;;;;;;19.17;5.97;;;;;;;;;;5022764;28;20041;-46
2023/06/03 06:42:28;;;;;;;15.80;5.53;;;;;;;;;;5002021;28;20032;-44
2023/06/03 06:44:57;;;;;;;26.38;7.15;;;;;;;;;;5020776;28;20045;-45
2023/06/03 06:47:25;;;;;;;18.27;5.80;;;;;;;;;;5026645;28;20044;-46
2023/06/03 06:49:55;;;;;;;13.52;5.13;;;;;;;;;;5004160;28;20037;-44
2023/06/03 06:52:24;;;;;;;20.60;5.72;;;;;;;;;;5014378;28;20128;-45
2023/06/03 06:54:54;;;;;;;13.93;4.83;;;;;;;;;;4997392;28;20067;-44
2023/06/03 06:57:22;;;;;;;13.90;4.13;;;;;;;;;;5011927;28;20060;-44
2023/06/03 06:59:52;;;;;;;18.60;4.85;;;;;;;;;;5010903;28;20037;-44
2023/06/03 07:02:22;;;;;;;17.35;4.72;;;;;;;;;;5025666;28;20044;-44
2023/06/03 07:04:52;;;;;;;16.40;4.45;;;;;;;;;;4999959;28;20431;-46
2023/06/03 07:07:19;;;;;;;17.30;5.27;;;;;;;;;;5015800;28;20033;-47
2023/06/03 07:09:47;;;;;;;18.45;4.43;;;;;;;;;;5015803;28;20041;-44
2023/06/03 07:12:15;;;;;;;11.93;3.90;;;;;;;;;;4993712;28;20773;-43
2023/06/03 07:14:43;;;;;;;18.70;4.50;;;;;;;;;;5023001;28;20535;-45
2023/06/03 07:17:10;;;;;;;12.15;4.30;;;;;;;;;;5021225;28;20041;-49
2023/06/03 07:19:40;;;;;;;17.87;4.50;;;;;;;;;;5017371;28;20041;-46
2023/06/03 07:22:07;;;;;;;18.73;3.47;;;;;;;;;;5012949;28;20121;-45
2023/06/03 07:24:35;;;;;;;14.27;3.13;;;;;;;;;;5013288;28;20051;-44
2023/06/03 07:27:06;;;;;;;15.70;3.25;;;;;;;;;;4991457;28;20041;-44
2023/06/03 07:29:37;;;;;;;16.42;3.63;;;;;;;;;;5018704;28;20051;-44
2023/06/03 07:32:06;;;;;;;16.80;3.80;;;;;;;;;;5001357;28;20652;-45
2023/06/03 07:34:34;;;;;;;15.57;3.72;;;;;;;;;;5018794;28;20132;-46
2023/06/03 07:37:05;;;;;;;12.25;3.60;;;;;;;;;;5004772;28;20647;-44
2023/06/03 07:39:33;;;;;;;13.57;3.83;;;;;;;;;;5016257;28;20052;-48
2023/06/03 07:42:01;;;;;;;21.38;3.80;;;;;;;;;;5022764;28;20037;-44
2023/06/03 07:44:39;;;;;;;19.30;3.10;;;;;;;;;;5015724;28;20040;-45
2023/06/03 07:47:08;;;;;;;13.27;3.75;;;;;;;;;;5020239;28;20115;-44
2023/06/03 07:49:35;;;;;;;14.35;3.70;;;;;;;;;;5014085;28;20075;-47
2023/06/03 07:52:05;;;;;;;12.25;3.83;;;;;;;;;;5017185;28;20132;-44
2023/06/03 07:54:34;;;;;;;14.63;3.85;;;;;;;;;;5009738;28;20049;-47
2023/06/03 07:57:02;;;;;;;12.50;3.63;;;;;;;;;;5009694;28;20041;-47
2023/06/03 07:59:29;;;;;;;14.10;3.78;;;;;;;;;;4996056;28;20968;-48
2023/06/03 08:01:58;;;;;;;17.83;4.13;;;;;;;;;;5023181;28;20041;-46
2023/06/03 08:04:28;;;;;;;10.02;3.38;;;;;;;;;;5016039;28;20053;-49
2023/06/03 08:06:56;;;;;;;12.90;3.30;;;;;;;;;;5010723;28;20040;-46
2023/06/03 08:09:28;;;;;;;17.17;3.17;;;;;;;;;;5014471;28;20032;-48
2023/06/03 08:11:58;;;;;;;17.42;3.90;;;;;;;;;;5009903;28;20057;-45
2023/06/03 08:14:26;;;;;;;11.93;3.35;;;;;;;;;;5019929;28;20037;-48
2023/06/03 08:16:56;;;;;;;11.73;3.35;;;;;;;;;;5017108;28;20056;-45
2023/06/03 08:19:24;;;;;;;14.55;3.85;;;;;;;;;;5016847;28;20040;-49
2023/06/03 08:21:52;;;;;;;9.47;3.63;;;;;;;;;;5016146;28;20053;-45
2023/06/03 08:24:20;;;;;;;14.73;3.30;;;;;;;;;;5023672;28;20099;-46
2023/06/03 08:26:49;;;;;;;12.05;3.20;;;;;;;;;;5006760;28;20286;-45
2023/06/03 08:29:17;;;;;;;10.50;3.00;;;;;;;;;;5035017;28;20041;-44
2023/06/03 08:31:45;;;;;;;12.77;3.28;;;;;;;;;;5022072;28;20056;-45
2023/06/03 08:34:13;;;;;;;13.13;3.60;;;;;;;;;;5015945;28;20420;-45
2023/06/03 08:36:41;;;;;;;15.98;4.50;;;;;;;;;;5009058;28;20037;-45
2023/06/03 08:39:08;;;;;;;15.68;3.10;;;;;;;;;;5021620;28;20045;-46
2023/06/03 08:41:38;;;;;;;15.05;3.58;;;;;;;;;;5010750;28;20037;-48
2023/06/03 08:44:13;;;;;;;14.20;3.38;;;;;;;;;;5016007;28;20072;-46
2023/06/03 08:46:43;;;;;;;13.17;3.27;;;;;;;;;;4998908;28;20056;-45
2023/06/03 08:49:18;;;;;;;9.68;3.35;;;;;;;;;;5012531;28;20136;-46
2023/06/03 08:51:52;;;;;;;12.65;3.28;;;;;;;;;;5004718;28;20061;-43
2023/06/03 08:54:21;;;;;;;10.07;3.22;;;;;;;;;;4988395;28;20519;-45
2023/06/03 08:56:53;;;;;;;13.25;3.10;;;;;;;;;;5014856;28;20045;-44
2023/06/03 08:59:24;;;;;;;15.00;3.80;;;;;;;;;;5011526;28;20055;-45
2023/06/03 09:01:55;;;;;;;7.30;2.50;;;;;;;;;;5021036;28;20044;-46
2023/06/03 09:04:23;;;;;;;12.07;2.85;;;;;;;;;;5026750;28;20127;-43
2023/06/03 09:06:51;;;;;;;12.30;3.10;;;;;;;;;;5016441;28;20037;-45
2023/06/03 09:09:20;;;;;;;10.25;2.60;;;;;;;;;;5017092;28;20060;-48
2023/06/03 09:11:49;;;;;;;11.63;3.33;;;;;;;;;;5022230;28;20040;-46
2023/06/03 09:14:18;;;;;;;10.23;2.85;;;;;;;;;;5012602;28;20585;-43
2023/06/03 09:16:48;;;;;;;9.52;2.75;;;;;;;;;;5012805;28;20152;-43
2023/06/03 09:19:16;;;;;;;7.97;2.97;;;;;;;;;;5006343;28;20225;-44
2023/06/03 09:21:44;;;;;;;11.80;3.22;;;;;;;;;;5035213;28;20119;-43
2023/06/03 09:24:12;;;;;;;11.80;2.87;;;;;;;;;;4996679;28;20663;-43
2023/06/03 09:26:40;;;;;;;10.60;3.28;;;;;;;;;;5019715;28;20037;-44
2023/06/03 09:29:07;;;;;;;9.23;2.97;;;;;;;;;;5011163;28;20045;-46
2023/06/03 09:31:35;;;;;;;8.32;2.60;;;;;;;;;;5020040;28;20049;-44
2023/06/03 09:34:05;;;;;;;11.43;3.30;;;;;;;;;;5016268;28;20129;-48
2023/06/03 09:36:43;;;;;;;10.80;2.87;;;;;;;;;;5014422;28;20410;-46
2023/06/03 09:39:16;;;;;;;12.07;3.15;;;;;;;;;;5009443;28;20691;-45
2023/06/03 09:41:44;;;;;;;10.57;2.78;;;;;;;;;;5013889;28;20083;-43
2023/06/03 09:44:12;;;;;;;9.98;3.25;;;;;;;;;;5023207;28;20044;-45
2023/06/03 09:46:49;;;;;;;9.77;3.67;;;;;;;;;;5006328;28;20051;-45
2023/06/03 09:49:19;;;;;;;11.63;3.37;;;;;;;;;;5017074;28;20414;-45
2023/06/03 09:52:09;;;;;;;10.57;3.40;;;;;;;;;;5019154;28;20128;-44
2023/06/03 09:54:37;;;;;;;8.43;3.38;;;;;;;;;;5017265;28;20040;-44
2023/06/03 09:57:09;;;;;;;9.93;2.67;;;;;;;;;;5028942;28;20045;-43
2023/06/03 09:59:37;;;;;;;8.57;2.90;;;;;;;;;;5005180;28;20033;-44
2023/06/03 10:02:09;;;;;;;11.00;2.60;;;;;;;;;;5022847;28;20041;-44
2023/06/03 10:04:40;;;;;;;11.23;3.08;;;;;;;;;;5023515;28;20578;-46
2023/06/03 10:07:14;;;;;;;8.63;2.85;;;;;;;;;;5012068;28;20041;-45
2023/06/03 10:09:44;;;;;;;10.60;2.63;;;;;;;;;;5013883;28;20045;-44
2023/06/03 10:12:13;;;;;;;10.07;3.10;;;;;;;;;;5011734;28;20061;-44
2023/06/03 10:14:47;;;;;;;10.40;3.43;;;;;;;;;;5019349;28;20119;-45
2023/06/03 10:17:16;;;;;;;8.43;2.72;;;;;;;;;;5005219;28;20037;-45
2023/06/03 10:19:45;;;;;;;8.43;2.55;;;;;;;;;;5017435;28;20471;-47
2023/06/03 10:22:15;;;;;;;11.85;3.08;;;;;;;;;;5002912;28;20091;-45
2023/06/03 10:24:43;;;;;;;12.38;3.28;;;;;;;;;;5017939;28;20084;-44
2023/06/03 10:27:11;;;;;;;10.23;3.00;;;;;;;;;;5005403;28;20037;-46
2023/06/03 10:29:40;;;;;;;9.65;3.90;;;;;;;;;;5026695;28;20045;-45
2023/06/03 10:32:08;;;;;;;11.63;3.10;;;;;;;;;;5013413;28;20037;-46
2023/06/03 10:34:39;;;;;;;9.50;3.03;;;;;;;;;;5023417;28;20053;-44
2023/06/03 10:37:09;;;;;;;12.23;2.70;;;;;;;;;;5030432;28;20487;-44
2023/06/03 10:39:37;;;;;;;10.13;2.80;;;;;;;;;;5004773;28;20636;-44
2023/06/03 10:42:06;;;;;;;10.85;2.88;;;;;;;;;;5025780;28;20029;-44
2023/06/03 10:44:34;;;;;;;7.70;2.60;;;;;;;;;;5011537;28;20080;-46
2023/06/03 10:47:04;;;;;;;9.70;3.00;;;;;;;;;;5018349;28;20049;-45
2023/06/03 10:49:35;;;;;;;8.35;2.75;;;;;;;;;;5004012;28;20750;-46
2023/06/03 10:52:13;;;;;;;7.93;2.20;;;;;;;;;;5035051;28;20483;-43
2023/06/03 10:54:48;;;;;;;9.35;3.03;;;;;;;;;;4984540;28;20619;-45
2023/06/03 10:57:17;;;;;;;10.15;2.38;;;;;;;;;;5020317;28;20129;-45
2023/06/03 10:59:46;;;;;;;8.15;2.60;;;;;;;;;;5009087;28;20491;-44
2023/06/03 11:02:14;;;;;;;7.90;2.03;;;;;;;;;;5021988;28;20045;-48
2023/06/03 11:04:42;;;;;;;8.30;2.57;;;;;;;;;;5023029;28;20056;-47
2023/06/03 11:07:25;;;;;;;10.57;2.50;;;;;;;;;;5008999;28;20087;-44
2023/06/03 11:09:54;;;;;;;6.45;2.05;;;;;;;;;;5005731;28;20069;-48
2023/06/03 11:12:43;;;;;;;8.13;2.35;;;;;;;;;;5005665;28;20322;-47
2023/06/03 11:15:10;;;;;;;9.00;2.40;;;;;;;;;;5021098;28;20304;-47
2023/06/03 11:17:38;;;;;;;9.60;2.67;;;;;;;;;;4993745;28;20269;-46
2023/06/03 11:20:08;;;;;;;10.35;2.30;;;;;;;;;;5018730;28;20049;-47
2023/06/03 11:22:53;;;;;;;8.07;1.83;;;;;;;;;;5010460;28;20037;-47
2023/06/03 11:25:33;;;;;;;10.13;2.22;;;;;;;;;;4998029;28;20045;-44
2023/06/03 11:28:25;;;;;;;9.00;2.40;;;;;;;;;;5024981;28;20488;-47
2023/06/03 11:30:54;;;;;;;8.63;2.97;;;;;;;;;;5005500;28;20047;-49
2023/06/03 11:33:28;;;;;;;11.48;3.35;;;;;;;;;;5025976;28;20068;-44
2023/06/03 11:35:56;;;;;;;9.90;2.90;;;;;;;;;;5001119;28;20124;-48
2023/06/03 11:38:42;;;;;;;7.70;2.28;;;;;;;;;;4993991;28;20504;-44
2023/06/03 11:41:12;;;;;;;8.52;3.15;;;;;;;;;;5014076;28;20037;-43
2023/06/03 11:44:02;;;;;;;9.50;3.20;;;;;;;;;;4997582;28;20036;-44
2023/06/03 11:46:30;;;;;;;9.15;2.60;;;;;;;;;;5004030;28;20061;-46
2023/06/03 11:48:58;;;;;;;7.45;2.67;;;;;;;;;;5004592;28;20490;-44
2023/06/03 11:51:27;;;;;;;6.93;1.80;;;;;;;;;;5003727;28;20045;-46
2023/06/03 11:53:55;;;;;;;7.72;2.22;;;;;;;;;;5028844;28;20041;-44
2023/06/03 11:56:25;;;;;;;6.90;2.73;;;;;;;;;;5011681;28;20470;-45
2023/06/03 11:58:53;;;;;;;7.07;2.20;;;;;;;;;;5023185;28;20815;-45
2023/06/03 12:01:21;;;;;;;7.97;2.38;;;;;;;;;;4989071;28;20037;-45
2023/06/03 12:03:57;;;;;;;7.22;2.05;;;;;;;;;;5020708;28;20041;-43
2023/06/03 12:06:25;;;;;;;5.75;2.05;;;;;;;;;;4985491;28;20029;-47
2023/06/03 12:08:53;;;;;;;8.20;2.40;;;;;;;;;;5007406;28;20049;-45
2023/06/03 12:11:28;;;;;;;8.45;2.60;;;;;;;;;;5019573;28;20037;-44
2023/06/03 12:13:56;;;;;;;7.57;2.40;;;;;;;;;;4995606;28;20037;-43
2023/06/03 12:16:28;;;;;;;8.25;2.47;;;;;;;;;;5018909;28;20036;-44
2023/06/03 12:18:55;;;;;;;11.95;2.90;;;;;;;;;;5008232;28;20041;-46
2023/06/03 12:21:23;;;;;;;7.83;2.40;;;;;;;;;;5016972;28;20033;-45
2023/06/03 12:23:51;;;;;;;9.65;2.72;;;;;;;;;;4982858;28;20041;-43
2023/06/03 12:26:19;;;;;;;8.65;2.47;;;;;;;;;;5026261;28;20052;-44
2023/06/03 12:28:49;;;;;;;10.40;2.28;;;;;;;;;;5008098;28;20082;-44
2023/06/03 12:31:21;;;;;;;9.98;2.80;;;;;;;;;;5007705;28;20041;-45
2023/06/03 12:33:49;;;;;;;8.17;2.73;;;;;;;;;;5021369;28;20055;-44
2023/06/03 12:36:22;;;;;;;9.02;3.05;;;;;;;;;;5010745;28;20046;-44
2023/06/03 12:38:53;;;;;;;9.25;2.72;;;;;;;;;;5025169;28;20052;-44
2023/06/03 12:41:21;;;;;;;8.00;2.53;;;;;;;;;;5015804;28;20041;-45
2023/06/03 12:43:58;;;;;;;7.97;2.47;;;;;;;;;;5021962;28;20519;-43
2023/06/03 12:46:26;;;;;;;9.70;2.80;;;;;;;;;;5009344;28;20037;-44
2023/06/03 12:48:56;;;;;;;9.43;2.50;;;;;;;;;;5009237;28;20064;-44
2023/06/03 12:51:28;;;;;;;40.05;5.18;;;;;;;;;;5008332;28;20849;-44
2023/06/03 12:53:57;;;;;;;7.35;2.60;;;;;;;;;;5025487;28;20064;-44
2023/06/03 12:56:26;;;;;;;7.97;2.40;;;;;;;;;;5010746;28;20401;-47
2023/06/03 12:58:55;;;;;;;9.27;2.87;;;;;;;;;;5013905;28;20052;-44
2023/06/03 13:01:23;;;;;;;9.95;3.38;;;;;;;;;;4984856;28;20041;-45
2023/06/03 13:03:54;;;;;;;14.75;3.33;;;;;;;;;;5020345;28;20033;-45
2023/06/03 13:06:22;;;;;;;11.60;3.20;;;;;;;;;;5009621;28;20052;-45
2023/06/03 13:08:51;;;;;;;12.10;3.20;;;;;;;;;;4999333;28;20389;-43
2023/06/03 13:11:19;;;;;;;10.43;3.07;;;;;;;;;;5014255;28;20029;-45
2023/06/03 13:13:47;;;;;;;10.48;2.97;;;;;;;;;;5016002;28;20557;-44
2023/06/03 13:16:17;;;;;;;6.80;2.85;;;;;;;;;;4995320;28;20068;-44
2023/06/03 13:18:44;;;;;;;11.70;3.75;;;;;;;;;;5006029;28;20106;-47
2023/06/03 13:21:12;;;;;;;9.77;2.58;;;;;;;;;;5018673;28;20425;-46
2023/06/03 13:23:41;;;;;;;9.57;3.20;;;;;;;;;;5013634;28;20064;-44
2023/06/03 13:26:09;;;;;;;14.50;3.33;;;;;;;;;;4999256;28;20049;-45
2023/06/03 13:28:37;;;;;;;11.27;2.97;;;;;;;;;;5018651;28;20052;-44
2023/06/03 13:31:05;;;;;;;7.10;2.30;;;;;;;;;;5012233;28;20033;-45
2023/06/03 13:33:35;;;;;;;10.73;3.58;;;;;;;;;;5018433;28;20044;-44
2023/06/03 13:36:02;;;;;;;9.53;3.60;;;;;;;;;;5008701;28;20896;-44
2023/06/03 13:38:30;;;;;;;10.48;4.20;;;;;;;;;;5009957;28;20041;-43
2023/06/03 13:40:58;;;;;;;7.95;2.88;;;;;;;;;;4997376;28;20495;-45
2023/06/03 13:43:25;;;;;;;10.00;3.90;;;;;;;;;;5025150;28;20140;-49
2023/06/03 13:45:53;;;;;;;11.55;3.30;;;;;;;;;;4990451;28;20041;-45
2023/06/03 13:48:21;;;;;;;10.73;4.57;;;;;;;;;;5023992;28;20071;-43
2023/06/03 13:50:52;;;;;;;7.43;3.53;;;;;;;;;;5007813;28;20041;-47
2023/06/03 13:53:20;;;;;;;21.83;9.65;;;;;;;;;;5006197;28;20133;-44
2023/06/03 13:55:47;;;;;;;9.98;4.38;;;;;;;;;;5007873;28;20126;-44
2023/06/03 13:58:16;;;;;;;5.95;2.65;;;;;;;;;;5014089;28;20044;-43
2023/06/03 14:00:45;;;;;;;12.37;4.63;;;;;;;;;;4994514;28;20457;-44
2023/06/03 14:03:12;;;;;;;11.30;4.07;;;;;;;;;;5018441;28;20041;-43
2023/06/03 14:05:41;;;;;;;9.63;4.53;;;;;;;;;;5014582;28;20778;-46
2023/06/03 14:08:11;;;;;;;12.13;4.18;;;;;;;;;;5024592;28;20047;-45
2023/06/03 14:10:41;;;;;;;10.20;4.22;;;;;;;;;;5008653;28;20878;-46
2023/06/03 14:13:09;;;;;;;13.17;4.07;;;;;;;;;;5013914;28;20455;-49
2023/06/03 14:15:38;;;;;;;6.90;3.00;;;;;;;;;;5015246;28;20047;-44
2023/06/03 14:18:06;;;;;;;10.57;3.65;;;;;;;;;;5019438;28;20055;-45
2023/06/03 14:20:34;;;;;;;11.80;3.50;;;;;;;;;;5014045;28;20045;-47
2023/06/03 14:23:02;;;;;;;9.18;3.53;;;;;;;;;;5027472;28;20511;-46
2023/06/03 14:25:31;;;;;;;9.80;3.27;;;;;;;;;;5014131;28;20059;-45
2023/06/03 14:28:02;;;;;;;9.43;2.90;;;;;;;;;;5005841;28;20773;-48
2023/06/03 14:30:30;;;;;;;10.25;3.28;;;;;;;;;;5016794;28;20729;-45
2023/06/03 14:33:21;;;;;;;9.10;3.03;;;;;;;;;;5018549;28;20033;-46
2023/06/03 14:35:49;;;;;;;10.35;2.88;;;;;;;;;;5012182;28;20124;-44
2023/06/03 14:38:19;;;;;;;9.77;2.97;;;;;;;;;;5016694;28;20468;-47
2023/06/03 14:40:49;;;;;;;7.93;2.70;;;;;;;;;;5014605;28;21157;-43
2023/06/03 14:43:17;;;;;;;8.60;2.85;;;;;;;;;;4992921;28;20431;-46
2023/06/03 14:45:45;;;;;;;8.40;2.95;;;;;;;;;;5026244;28;20048;-45
2023/06/03 14:48:13;;;;;;;8.00;2.45;;;;;;;;;;5015841;28;20423;-44